Time;durP1;ratioP1;P1;durP2;ratioP2;P2;SDS_P1;SDS_P2;PMS_P1;PMS_P2;Temp;Humidity;BMP_temperature;BMP_pressure;BME280_temperature;BME280_humidity;BME280_pressure;Samples;Min_cycle;Max_cycle;Signal;HPM_P1;HPM_P2
2022/11/11 00:01:48;;;;;;;27.70;19.50;;;;;;;8.90;71.73;101719.58;108586;1279;21938;-80
2022/11/11 00:04:36;;;;;;;26.40;18.40;;;;;;;8.90;71.70;101716.98;108609;1278;23010;-80
2022/11/11 00:07:23;;;;;;;32.00;20.40;;;;;;;8.88;71.69;101715.95;108642;1278;22196;-79
2022/11/11 00:10:12;;;;;;;24.30;19.00;;;;;;;8.87;71.56;101711.80;108559;1277;23082;-79
2022/11/11 00:13:02;;;;;;;32.70;19.20;;;;;;;8.83;71.61;101708.88;108588;1279;23091;-80
2022/11/11 00:15:49;;;;;;;26.00;16.60;;;;;;;8.80;71.70;101709.61;108812;1279;23091;-80
2022/11/11 00:27:40;;;;;;;24.10;16.40;;;;;;;8.78;71.86;101713.96;108696;1274;21916;-79
2022/11/11 00:30:30;;;;;;;23.80;16.70;;;;;;;8.76;71.92;101719.36;108559;1267;24039;-80
2022/11/11 00:33:18;;;;;;;23.40;17.30;;;;;;;8.73;71.97;101722.51;108844;1277;21947;-80
2022/11/11 00:36:07;;;;;;;26.80;16.20;;;;;;;8.72;72.00;101726.33;108980;1275;21935;-80
2022/11/11 00:38:57;;;;;;;26.50;16.10;;;;;;;8.71;71.93;101727.56;108943;1276;21925;-80
2022/11/11 00:41:45;;;;;;;27.40;18.00;;;;;;;8.68;71.99;101729.14;108800;1275;24309;-79
2022/11/11 00:44:32;;;;;;;19.20;15.60;;;;;;;8.67;71.97;101729.15;108883;1277;22356;-79
2022/11/11 00:53:37;;;;;;;19.80;16.00;;;;;;;8.62;72.23;101732.14;108694;1276;23848;-80
2022/11/11 00:56:28;;;;;;;19.70;17.10;;;;;;;8.63;72.23;101733.34;108876;1278;22990;-80
2022/11/11 00:59:17;;;;;;;22.70;18.00;;;;;;;8.63;72.27;101738.71;108761;1278;23784;-80
2022/11/11 01:02:06;;;;;;;25.00;20.00;;;;;;;8.63;72.22;101738.04;108902;1278;23588;-81
2022/11/11 01:04:57;;;;;;;31.50;24.40;;;;;;;8.62;72.28;101730.41;108861;1279;23768;-81
2022/11/11 01:07:49;;;;;;;29.60;26.40;;;;;;;8.62;72.33;101721.91;108677;1279;21942;-79
2022/11/11 01:10:40;;;;;;;26.40;22.50;;;;;;;8.61;72.44;101717.05;108608;1277;22069;-78
2022/11/11 01:13:32;;;;;;;27.80;21.10;;;;;;;8.61;72.35;101717.75;108643;1278;23009;-79
2022/11/11 01:16:24;;;;;;;26.80;19.40;;;;;;;8.59;72.40;101716.55;108592;1268;23712;-78
2022/11/11 01:19:12;;;;;;;22.00;17.40;;;;;;;8.58;72.41;101714.65;108713;1278;23637;-78
2022/11/11 01:22:02;;;;;;;19.10;15.70;;;;;;;8.58;72.41;101713.44;108577;1276;23020;-78
2022/11/11 01:24:52;;;;;;;20.70;15.60;;;;;;;8.56;72.44;101714.32;108249;1283;23040;-79
2022/11/11 01:27:40;;;;;;;20.80;16.60;;;;;;;8.56;72.55;101716.23;108262;1283;21943;-79
2022/11/11 01:30:27;;;;;;;20.10;14.70;;;;;;;8.56;72.59;101712.76;108197;1283;23694;-79
2022/11/11 01:33:15;;;;;;;25.30;17.00;;;;;;;8.55;72.58;101708.42;108353;1279;21960;-78
2022/11/11 01:36:27;;;;;;;23.20;16.70;;;;;;;8.54;72.58;101714.67;108179;1283;23610;-80
2022/11/11 01:39:15;;;;;;;18.60;13.80;;;;;;;8.51;72.57;101718.34;108083;1288;23074;-79
2022/11/11 01:42:02;;;;;;;20.60;12.80;;;;;;;8.51;72.67;101715.73;107809;1286;22728;-78
2022/11/11 01:44:50;;;;;;;20.50;14.60;;;;;;;8.52;72.72;101707.74;108169;1285;23063;-79
2022/11/11 01:51:28;;;;;;;24.30;14.50;;;;;;;8.50;72.80;101695.45;108275;1285;21930;-79
2022/11/11 01:54:51;;;;;;;23.00;14.40;;;;;;;8.49;72.88;101689.55;108351;1281;22981;-79
2022/11/11 01:57:56;;;;;;;22.30;15.80;;;;;;;8.50;72.96;101688.52;108369;1281;22150;-79
2022/11/11 02:00:44;;;;;;;19.60;14.60;;;;;;;8.51;73.02;101692.49;108296;1284;21932;-79
2022/11/11 02:03:38;;;;;;;25.60;16.50;;;;;;;8.53;72.92;101701.84;108158;1285;22021;-80
2022/11/11 02:06:28;;;;;;;28.20;19.40;;;;;;;8.53;72.91;101708.09;107798;1291;23629;-79
2022/11/11 02:09:16;;;;;;;26.70;19.10;;;;;;;8.53;72.82;101702.89;107721;1288;21931;-79
2022/11/11 02:15:15;;;;;;;27.80;17.60;;;;;;;8.47;72.63;101710.58;107779;1288;23590;-79
2022/11/11 02:18:04;;;;;;;27.70;19.30;;;;;;;8.44;72.57;101715.44;108309;1278;24478;-79
2022/11/11 02:20:52;;;;;;;20.10;15.20;;;;;;;8.42;72.49;101726.38;108311;1283;23052;-79
2022/11/11 02:24:16;;;;;;;22.40;14.90;;;;;;;8.42;72.58;101730.70;108623;1278;21937;-79
2022/11/11 02:27:06;;;;;;;22.60;16.00;;;;;;;8.39;72.70;101733.66;108627;1276;21925;-78
2022/11/11 02:29:56;;;;;;;26.70;16.40;;;;;;;8.39;72.68;101734.53;108508;1276;21932;-78
2022/11/11 02:32:48;;;;;;;26.50;16.10;;;;;;;8.39;72.84;101738.70;108560;1275;21929;-79
2022/11/11 02:35:53;;;;;;;21.60;14.90;;;;;;;8.41;72.99;101738.86;108669;1275;21926;-79
2022/11/11 02:38:42;;;;;;;22.50;15.00;;;;;;;8.40;72.96;101737.46;108591;1275;24308;-78
2022/11/11 02:44:37;;;;;;;20.40;13.80;;;;;;;8.41;72.90;101733.48;108582;1275;22918;-80
2022/11/11 02:47:26;;;;;;;21.70;13.30;;;;;;;8.42;72.94;101731.23;108725;1276;23686;-81
2022/11/11 02:50:14;;;;;;;21.30;14.00;;;;;;;8.42;72.92;101732.10;108616;1275;23610;-81
2022/11/11 02:53:03;;;;;;;17.50;12.10;;;;;;;8.43;72.94;101731.05;108600;1275;22258;-80
2022/11/11 02:55:51;;;;;;;23.40;14.00;;;;;;;8.43;73.04;101726.89;108801;1270;23690;-81
2022/11/11 02:58:43;;;;;;;20.50;13.30;;;;;;;8.45;73.21;101728.09;108730;1277;24134;-81
2022/11/11 03:01:30;;;;;;;20.60;12.90;;;;;;;8.48;73.14;101723.21;108556;1274;22464;-80
2022/11/11 03:04:18;;;;;;;17.20;12.60;;;;;;;8.51;73.19;101729.98;108497;1275;21944;-80
2022/11/11 03:07:05;;;;;;;19.30;13.60;;;;;;;8.53;73.27;101731.17;108902;1275;22703;-81
2022/11/11 03:09:57;;;;;;;23.60;13.90;;;;;;;8.56;73.23;101732.88;108447;1281;23630;-80
2022/11/11 03:12:52;;;;;;;24.80;12.40;;;;;;;8.55;73.08;101729.07;108458;1281;21942;-81
2022/11/11 03:15:44;;;;;;;27.80;15.80;;;;;;;8.58;73.11;101728.35;108485;1283;21940;-81
2022/11/11 03:18:34;;;;;;;29.10;17.00;;;;;;;8.57;72.94;101733.74;108474;1280;23748;-81
2022/11/11 03:21:26;;;;;;;25.20;15.00;;;;;;;8.54;72.67;101736.02;108679;1280;23224;-80
2022/11/11 03:27:44;;;;;;;25.80;17.40;;;;;;;8.52;72.84;101737.26;108634;1274;21935;-80
2022/11/11 03:30:32;;;;;;;25.70;15.70;;;;;;;8.52;72.82;101738.80;108768;1277;22699;-80
2022/11/11 03:33:20;;;;;;;18.10;12.90;;;;;;;8.54;72.92;101743.65;108809;1275;22738;-80
2022/11/11 03:36:08;;;;;;;19.60;14.20;;;;;;;8.57;72.96;101743.80;108564;1274;23841;-79
2022/11/11 03:38:56;;;;;;;20.70;12.70;;;;;;;8.60;72.92;101743.78;108497;1270;22069;-79
2022/11/11 03:41:43;;;;;;;16.90;12.30;;;;;;;8.62;72.88;101744.98;108821;1277;23765;-78
2022/11/11 03:44:31;;;;;;;18.20;11.70;;;;;;;8.62;72.86;101752.44;108586;1275;23007;-79
2022/11/11 03:47:19;;;;;;;17.60;10.90;;;;;;;8.64;72.92;101756.59;108668;1274;23048;-80
2022/11/11 03:50:08;;;;;;;19.50;10.80;;;;;;;8.67;72.97;101758.66;108565;1274;22208;-79
2022/11/11 03:52:58;;;;;;;22.10;11.70;;;;;;;8.69;73.01;101756.21;108576;1275;23484;-79
2022/11/11 03:55:49;;;;;;;17.60;10.10;;;;;;;8.71;72.90;101758.45;108563;1274;22880;-79
2022/11/11 03:58:37;;;;;;;18.60;11.00;;;;;;;8.72;72.74;101760.18;108717;1274;22504;-80
2022/11/11 04:10:45;;;;;;;13.90;8.80;;;;;;;8.72;72.66;101767.13;108635;1274;23730;-78
2022/11/11 04:16:40;;;;;;;21.10;10.00;;;;;;;8.71;72.70;101777.70;108641;1274;22237;-78
2022/11/11 04:22:40;;;;;;;18.40;9.80;;;;;;;8.71;72.63;101781.88;108665;1275;21983;-78
2022/11/11 04:35:13;;;;;;;18.20;10.10;;;;;;;8.69;72.52;101770.45;108162;1280;25020;-79
2022/11/11 04:41:10;;;;;;;12.20;8.90;;;;;;;8.70;72.55;101768.18;108253;1281;23880;-80
2022/11/11 04:47:04;;;;;;;15.60;9.20;;;;;;;8.70;72.38;101760.88;108234;1280;23665;-79
2022/11/11 04:49:56;;;;;;;15.70;9.20;;;;;;;8.70;72.29;101759.84;108118;1280;21947;-79
2022/11/11 04:52:53;;;;;;;17.90;9.90;;;;;;;8.70;72.38;101753.42;108234;1280;22807;-79
2022/11/11 04:59:14;;;;;;;16.90;10.40;;;;;;;8.72;72.32;101751.51;108285;1278;23052;-80
2022/11/11 05:05:19;;;;;;;15.60;9.20;;;;;;;8.69;72.18;101752.22;108243;1280;21930;-79
2022/11/11 05:11:14;;;;;;;16.40;9.40;;;;;;;8.72;72.13;101753.95;108417;1279;23162;-79
2022/11/11 05:25:24;;;;;;;19.80;12.70;;;;;;;8.74;72.15;101752.36;108682;1274;21940;-79
2022/11/11 05:26:33;;;;;;;17.70;12.30;;;;;;;8.74;72.19;101750.11;108635;1274;21947;-78
2022/11/11 05:29:23;;;;;;;20.90;14.10;;;;;;;8.73;72.02;101748.36;108628;1275;21953;-79
2022/11/11 05:32:17;;;;;;;18.90;13.30;;;;;;;8.72;72.02;101746.80;108599;1275;21922;-79
2022/11/11 05:35:05;;;;;;;20.70;12.80;;;;;;;8.72;72.09;101743.50;108573;1274;21931;-79
2022/11/11 05:40:58;;;;;;;22.50;12.40;;;;;;;8.74;71.92;101754.80;108560;1275;22407;-78
2022/11/11 05:43:46;;;;;;;17.40;10.70;;;;;;;8.73;71.86;101764.52;108715;1272;21950;-78
2022/11/11 05:46:34;;;;;;;17.00;11.00;;;;;;;8.72;71.76;101773.70;108577;1275;21933;-78
2022/11/11 05:49:23;;;;;;;21.30;12.20;;;;;;;8.72;71.71;101779.97;108688;1274;22720;-79
2022/11/11 05:52:15;;;;;;;21.10;12.60;;;;;;;8.70;71.78;101782.58;108641;1274;22876;-79
2022/11/11 05:55:03;;;;;;;17.50;12.10;;;;;;;8.67;71.61;101780.69;108641;1274;23624;-79
2022/11/11 05:57:51;;;;;;;16.10;11.40;;;;;;;8.65;71.77;101781.22;108558;1274;22383;-78
2022/11/11 06:00:39;;;;;;;16.60;11.60;;;;;;;8.65;71.74;101787.48;108678;1274;23078;-79
2022/11/11 06:03:27;;;;;;;19.30;11.90;;;;;;;8.63;71.60;101794.25;108557;1274;22272;-79
2022/11/11 06:06:14;;;;;;;13.30;10.10;;;;;;;8.61;71.67;101794.27;108575;1275;21963;-79
2022/11/11 06:09:03;;;;;;;19.00;11.00;;;;;;;8.60;71.76;101789.06;108578;1274;23574;-78
2022/11/11 06:11:54;;;;;;;20.60;13.30;;;;;;;8.58;71.73;101783.88;108608;1274;23598;-78
2022/11/11 06:14:42;;;;;;;15.50;11.50;;;;;;;8.54;71.58;101779.73;108641;1274;22012;-78
2022/11/11 06:17:32;;;;;;;16.00;11.50;;;;;;;8.48;71.78;101769.02;108579;1273;23051;-79
2022/11/11 06:20:37;;;;;;;;;;;;;;;;;;;;;
2022/11/11 06:23:34;;;;;;;18.10;10.50;;;;;;;8.47;72.02;101755.84;108692;1275;23606;-80
2022/11/11 06:26:24;;;;;;;17.40;10.40;;;;;;;8.53;72.22;101755.12;108668;1275;23634;-80
2022/11/11 06:29:13;;;;;;;13.60;8.40;;;;;;;8.59;72.24;101753.84;108767;1274;21936;-81
2022/11/11 06:32:03;;;;;;;18.00;10.20;;;;;;;8.64;72.19;101761.29;108753;1274;23585;-77
2022/11/11 06:34:56;;;;;;;14.90;9.40;;;;;;;8.65;72.03;101763.70;108719;1274;21946;-80
2022/11/11 06:37:43;;;;;;;18.80;10.40;;;;;;;8.66;71.94;101765.61;108399;1280;23693;-79
2022/11/11 06:40:32;;;;;;;28.80;19.90;;;;;;;8.66;72.01;101766.13;107973;1286;24365;-79
2022/11/11 06:43:24;;;;;;;25.20;17.80;;;;;;;8.70;72.07;101760.36;107794;1286;23603;-79
2022/11/11 06:46:22;;;;;;;24.40;15.50;;;;;;;8.71;71.94;101756.36;107653;1286;21950;-79
2022/11/11 06:49:09;;;;;;;27.10;20.30;;;;;;;8.71;71.86;101759.84;107753;1286;21914;-79
2022/11/11 06:51:57;;;;;;;31.70;24.70;;;;;;;8.72;71.88;101762.79;107778;1286;21945;-79
2022/11/11 06:54:47;;;;;;;18.20;15.50;;;;;;;8.71;71.75;101761.22;107774;1283;21948;-78
2022/11/11 06:57:34;;;;;;;19.40;12.20;;;;;;;8.72;71.71;101761.56;108165;1275;22042;-79
2022/11/11 07:00:24;;;;;;;16.30;12.30;;;;;;;8.75;71.87;101761.20;108619;1274;21935;-79
2022/11/11 07:03:15;;;;;;;15.40;10.60;;;;;;;8.81;72.02;101764.80;108572;1274;23112;-79
2022/11/11 07:06:09;;;;;;;131.60;80.70;;;;;;;8.88;72.04;101767.16;108592;1275;21936;-79
2022/11/11 07:08:57;;;;;;;35.20;21.30;;;;;;;8.95;71.92;101763.47;108690;1275;21927;-79
2022/11/11 07:11:44;;;;;;;18.90;13.10;;;;;;;9.04;71.99;101770.15;108579;1274;23108;-79
2022/11/11 07:14:34;;;;;;;24.10;16.80;;;;;;;9.15;71.94;101773.37;108866;1274;21956;-79
2022/11/11 07:17:22;;;;;;;22.10;12.50;;;;;;;9.23;71.70;101770.34;108671;1274;21902;-80
2022/11/11 07:20:10;;;;;;;17.00;10.50;;;;;;;9.30;71.59;101766.80;108821;1274;21938;-79
2022/11/11 07:22:59;;;;;;;18.30;9.90;;;;;;;9.36;71.26;101766.55;108252;1280;21958;-80
2022/11/11 07:25:46;;;;;;;25.50;11.60;;;;;;;9.40;70.88;101766.69;108109;1280;22032;-79
2022/11/11 07:28:34;;;;;;;18.00;11.60;;;;;;;9.44;70.87;101771.35;108389;1280;21964;-79
2022/11/11 07:31:22;;;;;;;17.50;12.30;;;;;;;9.52;70.89;101778.73;108259;1280;23100;-79
2022/11/11 07:34:10;;;;;;;18.60;12.50;;;;;;;9.58;70.67;101781.27;108334;1272;22027;-80
2022/11/11 07:36:58;;;;;;;20.40;10.90;;;;;;;9.65;70.49;101782.08;108211;1280;22494;-81
2022/11/11 07:39:45;;;;;;;18.60;11.20;;;;;;;9.70;70.28;101775.06;108425;1280;21982;-80
2022/11/11 07:42:37;;;;;;;21.00;11.90;;;;;;;9.75;70.09;101768.58;108739;1274;21944;-80
2022/11/11 07:45:25;;;;;;;18.50;11.80;;;;;;;9.79;69.97;101775.13;108742;1273;21931;-81
2022/11/11 07:48:14;;;;;;;19.40;13.00;;;;;;;9.82;69.87;101782.05;108713;1274;23043;-81
2022/11/11 07:51:05;;;;;;;17.90;10.60;;;;;;;9.88;69.52;101781.63;108618;1275;23716;-86
2022/11/11 07:54:00;;;;;;;12.10;10.00;;;;;;;9.90;69.58;101782.98;109086;1274;23851;-85
2022/11/11 07:56:49;;;;;;;16.90;9.50;;;;;;;9.97;69.44;101789.88;108487;1271;23069;-80
2022/11/11 07:59:44;;;;;;;13.60;9.60;;;;;;;10.00;69.24;101786.70;108089;1274;22284;-78
2022/11/11 08:02:45;;;;;;;18.10;9.10;;;;;;;10.03;69.17;101791.52;107695;1289;22297;-81
2022/11/11 08:05:33;;;;;;;17.60;11.50;;;;;;;10.08;69.08;101799.99;108000;1288;21963;-84
2022/11/11 08:08:28;;;;;;;21.90;11.30;;;;;;;10.12;69.04;101803.94;107946;1289;23617;-78
2022/11/11 08:13:39;;;;;;;21.30;16.40;;;;;;;10.20;69.04;101804.55;107668;1288;22445;-78
2022/11/11 08:14:25;;;;;;;22.30;15.30;;;;;;;10.30;69.10;101806.67;107485;1288;22011;-80
2022/11/11 08:17:14;;;;;;;17.70;10.80;;;;;;;10.37;68.69;101812.52;107795;1283;23876;-79
2022/11/11 08:20:05;;;;;;;21.80;15.40;;;;;;;10.45;68.82;101811.88;108164;1267;21946;-78
2022/11/11 08:22:56;;;;;;;22.20;16.40;;;;;;;10.53;68.38;101810.90;108200;1267;23731;-79
2022/11/11 08:26:14;;;;;;;16.50;13.00;;;;;;;10.51;67.99;101803.45;108248;1280;23634;-79
2022/11/11 08:29:04;;;;;;;19.90;13.10;;;;;;;10.49;67.87;101802.08;108294;1279;23108;-78
2022/11/11 08:31:52;;;;;;;18.50;11.80;;;;;;;10.51;67.91;101808.33;108334;1274;23594;-78
2022/11/11 08:34:41;;;;;;;22.00;13.70;;;;;;;10.54;67.83;101809.48;108573;1274;21944;-78
2022/11/11 08:37:38;;;;;;;15.10;12.60;;;;;;;10.58;67.69;101806.30;108295;1277;21952;-79
2022/11/11 08:40:28;;;;;;;15.10;10.20;;;;;;;10.58;67.46;101802.98;108368;1277;21979;-78
2022/11/11 08:43:26;;;;;;;;;;;;;;;;;;;;;
2022/11/11 08:46:21;;;;;;;19.10;11.00;;;;;;;10.60;67.37;101809.25;108504;1277;23594;-79
2022/11/11 08:49:10;;;;;;;14.00;9.90;;;;;;;10.65;67.43;101812.30;108466;1275;21953;-80
2022/11/11 08:51:59;;;;;;;15.20;10.70;;;;;;;10.72;67.59;101818.80;108436;1277;23069;-79
2022/11/11 08:54:52;;;;;;;17.90;12.70;;;;;;;10.81;67.52;101814.48;108479;1265;23061;-80
2022/11/11 08:57:59;;;;;;;20.20;12.50;;;;;;;10.91;67.48;101818.85;108295;1278;22332;-80
2022/11/11 09:00:50;;;;;;;20.40;10.40;;;;;;;11.00;67.26;101824.65;108369;1278;21936;-80
2022/11/11 09:03:50;;;;;;;19.00;10.70;;;;;;;11.04;66.88;101829.46;108568;1279;21968;-80
2022/11/11 09:06:59;;;;;;;16.50;11.50;;;;;;;11.03;66.66;101834.52;108253;1285;21945;-81
2022/11/11 09:09:55;;;;;;;18.10;12.10;;;;;;;11.02;66.57;101836.11;108284;1285;22734;-81
2022/11/11 09:12:43;;;;;;;15.20;8.90;;;;;;;11.04;66.43;101830.15;108297;1284;22058;-81
2022/11/11 09:15:33;;;;;;;16.00;11.20;;;;;;;11.09;66.63;101827.11;108235;1272;23060;-81
2022/11/11 09:18:21;;;;;;;17.40;10.70;;;;;;;11.20;66.72;101822.76;107862;1289;21997;-79
2022/11/11 09:21:11;;;;;;;15.90;11.70;;;;;;;11.29;66.39;101815.98;107634;1288;21945;-79
2022/11/11 09:24:02;;;;;;;17.20;11.50;;;;;;;11.34;66.16;101811.02;107939;1283;23080;-83
2022/11/11 09:26:52;;;;;;;14.00;10.10;;;;;;;11.37;66.00;101810.77;108241;1283;22310;-81
2022/11/11 09:29:45;;;;;;;21.50;10.10;;;;;;;11.43;65.94;101817.98;108513;1277;21959;-81
2022/11/11 09:32:36;;;;;;;17.20;11.80;;;;;;;11.47;65.85;101817.75;108607;1274;23048;-81
2022/11/11 09:35:38;;;;;;;59.20;37.60;;;;;;;11.49;65.58;101822.23;108628;1274;22058;-82
2022/11/11 09:38:34;;;;;;;16.00;10.40;;;;;;;11.48;65.19;101824.87;108970;1274;23616;-82
2022/11/11 09:41:53;;;;;;;20.90;12.80;;;;;;;11.49;65.40;101826.23;108463;1278;21949;-81
2022/11/11 09:45:23;;;;;;;24.30;16.40;;;;;;;11.55;65.56;101819.34;108158;1286;21956;-81
2022/11/11 09:48:33;;;;;;;23.70;14.40;;;;;;;11.61;65.36;101813.30;108285;1285;21945;-81
2022/11/11 09:51:31;;;;;;;18.90;11.20;;;;;;;11.67;65.22;101813.37;108309;1285;21982;-80
2022/11/11 09:54:49;;;;;;;19.20;12.10;;;;;;;11.72;65.22;101817.98;107741;1289;21977;-81
2022/11/11 09:58:00;;;;;;;22.70;16.20;;;;;;;11.76;65.13;101823.31;107221;1293;23701;-80
2022/11/11 10:01:07;;;;;;;26.30;16.40;;;;;;;11.77;64.96;101822.94;107428;1289;21945;-80
2022/11/11 10:04:27;;;;;;;18.50;11.90;;;;;;;11.79;64.97;101827.79;107647;1291;21962;-80
2022/11/11 10:07:40;;;;;;;20.70;10.50;;;;;;;11.81;64.88;101815.70;107612;1291;23599;-79
2022/11/11 10:10:50;;;;;;;18.00;11.20;;;;;;;11.85;64.86;101811.44;107495;1291;21978;-80
2022/11/11 10:13:43;;;;;;;18.30;12.00;;;;;;;11.89;64.74;101805.46;107764;1288;22379;-81
2022/11/11 10:17:28;;;;;;;16.80;10.10;;;;;;;11.93;64.58;101797.89;108397;1280;22075;-83
2022/11/11 10:20:38;;;;;;;18.30;9.00;;;;;;;11.94;64.61;101796.11;108786;1280;21959;-86
2022/11/11 10:23:46;;;;;;;;;;;;;;;;;;;;;
2022/11/11 10:26:44;;;;;;;19.40;11.40;;;;;;;12.01;64.41;101794.60;108804;1274;21963;-80
2022/11/11 10:29:58;;;;;;;18.40;12.30;;;;;;;11.98;64.13;101795.87;108794;1274;23576;-80
2022/11/11 10:33:13;;;;;;;17.60;10.70;;;;;;;11.97;64.23;101788.38;108862;1272;23031;-79
2022/11/11 10:36:06;;;;;;;18.80;11.00;;;;;;;11.97;64.23;101791.35;108790;1270;21937;-82
2022/11/11 10:39:29;;;;;;;20.50;11.80;;;;;;;12.01;64.32;101796.69;108773;1274;23083;-81
2022/11/11 10:42:22;;;;;;;16.10;10.30;;;;;;;12.04;64.22;101802.21;108770;1274;23001;-80
2022/11/11 10:45:49;;;;;;;;;;;;;;;12.06;64.12;101800.77;108743;1273;23612;-79
2022/11/11 10:48:59;;;;;;;20.90;12.40;;;;;;;11.93;64.16;101802.77;108715;1273;21996;-80
2022/11/11 10:52:06;;;;;;;24.00;13.50;;;;;;;11.89;64.27;101795.84;108619;1274;23778;-81
2022/11/11 10:55:05;;;;;;;28.80;18.60;;;;;;;11.91;64.27;101785.69;108821;1274;21931;-79
2022/11/11 10:58:06;;;;;;;20.50;12.90;;;;;;;11.97;64.04;101777.05;108689;1274;22838;-82
2022/11/11 11:00:56;;;;;;;28.20;16.20;;;;;;;11.99;63.94;101778.91;108916;1274;23703;-80
2022/11/11 11:03:54;;;;;;;23.50;16.10;;;;;;;12.08;64.08;101779.77;109038;1270;21968;-80
2022/11/11 11:06:47;;;;;;;25.90;17.40;;;;;;;12.16;63.95;101787.29;108824;1274;22298;-80
2022/11/11 11:09:44;;;;;;;25.30;13.20;;;;;;;12.23;63.87;101789.23;108901;1269;21934;-81
2022/11/11 11:13:11;;;;;;;16.70;12.30;;;;;;;12.27;63.35;101790.70;108829;1274;22884;-80
2022/11/11 11:16:13;;;;;;;21.60;12.30;;;;;;;12.31;63.42;101789.23;108962;1274;21941;-81
2022/11/11 11:19:17;;;;;;;17.30;13.70;;;;;;;12.39;63.18;101788.52;108787;1267;22422;-80
2022/11/11 11:22:05;;;;;;;34.30;24.20;;;;;;;12.42;62.87;101781.48;108710;1274;22435;-81
2022/11/11 11:25:12;;;;;;;18.80;14.40;;;;;;;12.41;62.55;101780.10;108634;1274;22035;-81
2022/11/11 11:28:13;;;;;;;19.90;15.30;;;;;;;12.40;62.62;101784.16;108883;1274;22397;-81
2022/11/11 11:31:06;;;;;;;34.50;30.00;;;;;;;12.42;62.74;101779.39;108871;1274;21927;-81
2022/11/11 11:33:55;;;;;;;27.50;21.10;;;;;;;12.45;62.60;101781.76;108864;1274;23676;-80
2022/11/11 11:36:58;;;;;;;19.00;14.50;;;;;;;12.46;62.50;101770.05;108906;1267;22954;-79
2022/11/11 11:39:47;;;;;;;15.70;10.30;;;;;;;12.48;62.44;101764.05;108523;1274;21944;-78
2022/11/11 11:42:38;;;;;;;21.20;12.60;;;;;;;12.46;62.19;101758.34;108830;1269;21958;-79
2022/11/11 11:45:32;;;;;;;21.20;12.30;;;;;;;12.48;62.44;101757.06;107690;1274;1151947;-79
2022/11/11 11:49:00;;;;;;;21.10;12.80;;;;;;;12.50;62.35;101759.83;108628;1274;23733;-79
2022/11/11 11:52:01;;;;;;;18.00;12.20;;;;;;;12.52;62.47;101768.52;108835;1274;22273;-79
2022/11/11 11:55:16;;;;;;;18.60;12.00;;;;;;;12.50;62.23;101767.16;108858;1274;23599;-80
2022/11/11 11:58:11;;;;;;;19.30;11.30;;;;;;;12.45;62.15;101759.95;108874;1274;23700;-79
2022/11/11 12:01:06;;;;;;;17.60;10.40;;;;;;;12.42;62.12;101750.94;108864;1274;23683;-79
2022/11/11 12:04:33;;;;;;;17.50;11.40;;;;;;;12.36;61.99;101748.61;108483;1274;21985;-79
2022/11/11 12:07:41;;;;;;;17.10;9.60;;;;;;;12.35;62.41;101750.58;108580;1274;21942;-79
2022/11/11 12:11:17;;;;;;;17.00;9.90;;;;;;;12.37;62.46;101748.93;108858;1274;23779;-79
2022/11/11 12:14:40;;;;;;;19.40;11.50;;;;;;;12.40;62.48;101746.08;108752;1274;23683;-79
2022/11/11 12:17:57;;;;;;;17.00;9.60;;;;;;;12.40;62.31;101746.09;108845;1274;23040;-79
2022/11/11 12:21:16;;;;;;;18.40;11.20;;;;;;;12.37;62.22;101742.31;108923;1274;24278;-80
2022/11/11 12:24:30;;;;;;;23.80;14.40;;;;;;;12.37;62.41;101740.57;108328;1278;22107;-80
2022/11/11 12:27:55;;;;;;;15.60;11.30;;;;;;;12.42;62.52;101742.90;108511;1279;22063;-80
2022/11/11 12:31:09;;;;;;;17.90;11.40;;;;;;;12.46;62.48;101741.23;108438;1281;21984;-80
2022/11/11 12:34:27;;;;;;;;;;;;;;;;;;;;;
2022/11/11 12:37:53;;;;;;;15.30;9.90;;;;;;;12.59;62.23;101741.64;107896;1288;22698;-79
2022/11/11 12:40:56;;;;;;;19.50;15.40;;;;;;;12.61;62.13;101739.48;107643;1288;22201;-79
2022/11/11 12:44:09;;;;;;;19.90;13.20;;;;;;;12.65;62.11;101734.49;108067;1284;23032;-79
2022/11/11 12:47:38;;;;;;;15.40;11.10;;;;;;;12.65;61.91;101734.32;108240;1272;21967;-79
2022/11/11 12:50:56;;;;;;;14.40;10.40;;;;;;;12.63;61.83;101734.54;108164;1279;23606;-78
2022/11/11 12:54:32;;;;;;;19.50;14.20;;;;;;;12.64;61.78;101735.21;108530;1274;23664;-79
2022/11/11 12:57:59;;;;;;;19.10;10.60;;;;;;;12.66;61.70;101744.23;108605;1274;23774;-80
2022/11/11 13:01:16;;;;;;;12.20;8.90;;;;;;;12.67;61.59;101744.23;108511;1274;21947;-80
2022/11/11 13:04:29;;;;;;;16.60;10.30;;;;;;;12.66;61.41;101739.89;108677;1272;21948;-80
2022/11/11 13:08:21;;;;;;;16.10;10.40;;;;;;;12.64;61.39;101738.36;108717;1273;21931;-80
2022/11/11 13:11:36;;;;;;;16.10;10.90;;;;;;;12.64;61.55;101751.27;108325;1282;21947;-80
2022/11/11 13:14:47;;;;;;;17.70;11.40;;;;;;;12.64;61.42;101750.58;108333;1276;21965;-79
2022/11/11 13:17:37;;;;;;;15.90;11.60;;;;;;;12.64;61.46;101749.70;108336;1283;23026;-79
2022/11/11 13:20:50;;;;;;;25.90;15.40;;;;;;;12.68;61.52;101752.39;107840;1282;22039;-79
2022/11/11 13:23:39;;;;;;;20.20;12.40;;;;;;;12.71;61.57;101755.66;108107;1280;21930;-79
2022/11/11 13:26:47;;;;;;;;;;;;;;;;;;;;;
2022/11/11 13:29:49;;;;;;;19.00;11.90;;;;;;;12.71;61.42;101747.98;108467;1279;21980;-80
2022/11/11 13:33:02;;;;;;;20.50;13.70;;;;;;;12.70;61.40;101750.77;108096;1287;21971;-80
2022/11/11 13:35:57;;;;;;;;;;;;;;;12.68;61.34;101750.48;107634;1287;23067;-79
2022/11/11 13:38:59;;;;;;;18.10;11.30;;;;;;;12.58;61.41;101751.08;107877;1284;23023;-79
2022/11/11 13:41:52;;;;;;;12.80;8.80;;;;;;;12.59;61.45;101749.31;107724;1288;21960;-79
2022/11/11 13:44:56;;;;;;;20.10;11.50;;;;;;;12.59;61.33;101749.49;107485;1288;24427;-79
2022/11/11 13:47:46;;;;;;;18.80;10.80;;;;;;;12.57;61.32;101755.98;108336;1279;23585;-80
2022/11/11 13:50:45;;;;;;;13.90;9.20;;;;;;;12.54;61.29;101758.86;108415;1280;22251;-79
2022/11/11 13:53:48;;;;;;;;;;;;;;;12.48;61.33;101757.94;107546;1288;22592;-79
2022/11/11 13:56:45;;;;;;;14.60;7.90;;;;;;;12.37;61.40;101757.16;107817;1282;22268;-79
2022/11/11 13:59:45;;;;;;;11.80;7.90;;;;;;;12.33;61.40;101757.26;108043;1280;22008;-80
2022/11/11 14:02:36;;;;;;;14.90;9.90;;;;;;;12.29;61.37;101758.55;108134;1280;22016;-81
2022/11/11 14:05:25;;;;;;;17.80;10.10;;;;;;;12.29;61.36;101757.70;108464;1280;22294;-81
2022/11/11 14:08:46;;;;;;;18.40;9.50;;;;;;;12.27;61.41;101761.04;107848;1285;23190;-78
2022/11/11 14:11:34;;;;;;;13.80;10.40;;;;;;;12.24;61.63;101760.93;108181;1280;23598;-79
2022/11/11 14:14:35;;;;;;;16.70;10.80;;;;;;;12.25;61.76;101760.41;108211;1280;22013;-80
2022/11/11 14:17:29;;;;;;;22.90;16.70;;;;;;;12.22;61.84;101764.98;108363;1280;21940;-82
2022/11/11 14:20:29;;;;;;;27.20;19.10;;;;;;;12.21;61.97;101762.04;108440;1280;21953;-80
2022/11/11 14:23:17;;;;;;;26.70;15.50;;;;;;;12.18;62.02;101764.74;108539;1280;23009;-79
2022/11/11 14:26:05;;;;;;;19.50;14.60;;;;;;;12.16;61.95;101764.42;108667;1271;21963;-77
2022/11/11 14:29:04;;;;;;;24.00;18.10;;;;;;;12.13;62.06;101761.01;108706;1274;21994;-78
2022/11/11 14:32:08;;;;;;;24.40;18.60;;;;;;;12.10;61.93;101756.88;108695;1275;24428;-79
2022/11/11 14:35:26;;;;;;;27.10;19.40;;;;;;;12.08;61.99;101763.58;108687;1274;22026;-79
2022/11/11 14:38:29;;;;;;;26.30;18.30;;;;;;;12.02;62.14;101762.81;109097;1266;21947;-82
2022/11/11 14:41:39;;;;;;;30.80;21.80;;;;;;;11.99;62.21;101752.77;108888;1274;24399;-81
2022/11/11 14:44:35;;;;;;;31.10;22.20;;;;;;;11.93;62.27;101746.60;109109;1273;22096;-80
2022/11/11 14:47:39;;;;;;;33.60;25.40;;;;;;;11.87;62.37;101744.09;108744;1280;22772;-80
2022/11/11 14:50:31;;;;;;;28.80;22.10;;;;;;;11.84;62.43;101746.23;108109;1285;21991;-81
2022/11/11 14:53:46;;;;;;;29.80;20.00;;;;;;;11.83;62.53;101746.09;108027;1286;21982;-80